createdAt,value
2022-12-23T00:01:11.663Z,4.22
2022-12-23T00:04:13.773Z,4.25
2022-12-23T00:07:28.643Z,4.26
2022-12-23T00:10:31.363Z,4.29
2022-12-23T00:13:47.606Z,4.30
2022-12-23T00:17:06.194Z,4.27
2022-12-23T00:20:25.243Z,4.30
2022-12-23T00:23:40.604Z,4.36
2022-12-23T00:26:49.325Z,4.34
2022-12-23T00:29:57.623Z,4.49
2022-12-23T00:33:12.630Z,4.50
2022-12-23T00:36:25.702Z,4.51
2022-12-23T00:39:34.378Z,4.52
2022-12-23T00:42:49.635Z,4.52
2022-12-23T00:45:51.698Z,4.52
2022-12-23T00:49:06.617Z,4.54
2022-12-23T00:52:15.703Z,4.53
2022-12-23T00:55:30.636Z,4.50
2022-12-23T00:58:32.751Z,4.58
2022-12-23T01:01:47.771Z,4.57
2022-12-23T01:04:49.955Z,4.59
2022-12-23T01:08:04.613Z,4.57
2022-12-23T01:11:09.331Z,4.55
2022-12-23T01:14:25.629Z,4.55
2022-12-23T01:17:34.632Z,4.43
2022-12-23T01:20:46.619Z,4.48
2022-12-23T01:23:55.668Z,4.44
2022-12-23T01:27:10.927Z,4.46
2022-12-23T01:30:19.607Z,4.44
2022-12-23T01:33:28.821Z,4.45
2022-12-23T01:36:59.704Z,4.44
2022-12-23T01:40:08.948Z,4.39
2022-12-23T01:43:25.632Z,4.37
2022-12-23T01:46:40.632Z,4.34
2022-12-23T01:49:52.759Z,4.33
2022-12-23T01:53:12.606Z,4.30
2022-12-23T01:56:34.483Z,4.27
2022-12-23T01:59:42.612Z,4.29
2022-12-23T02:02:52.813Z,4.28
2022-12-23T02:06:09.633Z,4.28
2022-12-23T02:09:28.632Z,4.26
2022-12-23T02:13:14.615Z,4.26
2022-12-23T02:16:23.686Z,4.25
2022-12-23T02:19:59.505Z,4.23
2022-12-23T02:23:14.674Z,4.23
2022-12-23T02:26:32.296Z,4.21
2022-12-23T02:30:02.640Z,4.20
2022-12-23T02:33:20.210Z,4.18
2022-12-23T02:36:42.607Z,4.12
2022-12-23T02:40:16.702Z,4.10
2022-12-23T02:43:51.560Z,4.08
2022-12-23T02:47:25.589Z,4.06
2022-12-23T02:50:41.631Z,4.00
2022-12-23T02:53:54.990Z,3.97
2022-12-23T02:57:06.627Z,3.99
2022-12-23T03:00:16.562Z,3.99
2022-12-23T03:03:25.679Z,3.99
2022-12-23T03:06:48.621Z,3.99
2022-12-23T03:10:08.535Z,3.97
2022-12-23T03:13:22.642Z,3.98
2022-12-23T03:16:50.124Z,3.98
2022-12-23T03:20:19.615Z,4.00
2022-12-23T03:23:32.465Z,4.00
2022-12-23T03:26:55.608Z,4.00
2022-12-23T03:30:13.600Z,4.00
2022-12-23T03:33:42.633Z,3.99
2022-12-23T03:36:57.967Z,3.95
2022-12-23T03:40:24.616Z,3.93
2022-12-23T03:44:33.602Z,3.94
2022-12-23T03:47:46.798Z,3.87
2022-12-23T03:51:12.616Z,3.95
2022-12-23T03:54:19.153Z,3.93
2022-12-23T03:57:43.617Z,3.96
2022-12-23T04:01:08.613Z,3.97
2022-12-23T04:04:39.576Z,3.98
2022-12-23T04:08:13.605Z,3.96
2022-12-23T04:11:15.871Z,3.93
2022-12-23T04:14:30.596Z,3.79
2022-12-23T04:17:39.603Z,3.90
2022-12-23T04:20:49.619Z,3.90
2022-12-23T04:24:04.589Z,3.91
2022-12-23T04:27:15.396Z,3.91
2022-12-23T04:30:35.609Z,3.89
2022-12-23T04:33:44.267Z,3.90
2022-12-23T04:36:59.605Z,3.85
2022-12-23T04:40:02.066Z,3.91
2022-12-23T04:43:16.602Z,3.90
2022-12-23T04:46:38.651Z,3.92
2022-12-23T04:49:53.610Z,3.84
2022-12-23T04:53:02.475Z,3.89
2022-12-23T04:56:11.587Z,3.82
2022-12-23T04:59:26.598Z,3.80
2022-12-23T05:02:41.665Z,3.74
2022-12-23T05:05:50.289Z,3.72
2022-12-23T05:08:58.592Z,3.66
2022-12-23T05:12:07.315Z,3.65
2022-12-23T05:15:22.585Z,3.60
2022-12-23T05:18:37.642Z,3.58
2022-12-23T05:21:46.306Z,3.58
2022-12-23T05:25:01.631Z,3.53
2022-12-23T05:28:10.628Z,3.53
2022-12-23T05:31:20.609Z,3.49
2022-12-23T05:34:29.223Z,3.42
2022-12-23T05:37:44.608Z,3.37
2022-12-23T05:40:56.593Z,3.37
2022-12-23T05:44:11.611Z,3.30
2022-12-23T05:47:19.870Z,3.32
2022-12-23T05:50:36.623Z,3.34
2022-12-23T05:53:51.593Z,3.31
2022-12-23T05:57:00.604Z,3.37
2022-12-23T06:00:16.611Z,3.41
2022-12-23T06:03:18.776Z,3.42
2022-12-23T06:06:33.587Z,3.44
2022-12-23T06:09:35.549Z,3.41
2022-12-23T06:12:51.589Z,3.41
2022-12-23T06:16:00.314Z,3.41
2022-12-23T06:19:09.606Z,3.37
2022-12-23T06:22:25.567Z,3.37
2022-12-23T06:25:34.597Z,3.33
2022-12-23T06:28:43.433Z,3.25
2022-12-23T06:31:58.680Z,3.16
2022-12-23T06:35:07.596Z,3.15
2022-12-23T06:38:16.358Z,3.14
2022-12-23T06:41:31.609Z,3.18
2022-12-23T06:44:40.258Z,3.18
2022-12-23T06:47:55.568Z,3.21
2022-12-23T06:51:11.581Z,3.20
2022-12-23T06:54:20.283Z,3.18
2022-12-23T06:57:28.570Z,3.14
2022-12-23T07:00:45.712Z,3.17
2022-12-23T07:03:54.323Z,3.19
2022-12-23T07:07:02.565Z,3.14
2022-12-23T07:10:11.470Z,3.16
2022-12-23T07:13:26.568Z,3.20
2022-12-23T07:16:35.629Z,3.20
2022-12-23T07:19:45.520Z,3.21
2022-12-23T07:22:54.568Z,3.16
2022-12-23T07:26:03.312Z,3.22
2022-12-23T07:29:11.595Z,3.15
2022-12-23T07:32:26.572Z,3.13
2022-12-23T07:35:41.582Z,3.10
2022-12-23T07:38:43.559Z,3.07
2022-12-23T07:42:25.000Z,3.11
2022-12-23T07:45:35.641Z,3.09
2022-12-23T07:48:50.586Z,3.06
2022-12-23T07:51:59.563Z,3.02
2022-12-23T07:55:15.584Z,3.10
2022-12-23T07:58:24.570Z,3.13
2022-12-23T08:01:33.312Z,3.18
2022-12-23T08:04:46.024Z,3.09
2022-12-23T08:07:55.223Z,3.19
2022-12-23T08:11:12.582Z,3.22
2022-12-23T08:14:21.198Z,3.19
2022-12-23T08:17:33.579Z,3.23
2022-12-23T08:20:42.292Z,3.29
2022-12-23T08:23:50.573Z,3.34
2022-12-23T08:27:05.590Z,3.40
2022-12-23T08:30:18.341Z,3.40
2022-12-23T08:33:27.605Z,3.37
2022-12-23T08:36:36.613Z,3.27
2022-12-23T08:39:45.594Z,3.24
2022-12-23T08:42:54.276Z,3.25
2022-12-23T08:46:11.636Z,3.22
2022-12-23T08:49:20.366Z,3.18
2022-12-23T08:52:35.607Z,3.13
2022-12-23T08:55:40.745Z,3.16
2022-12-23T08:58:57.580Z,3.21
2022-12-23T09:02:13.660Z,3.20
2022-12-23T09:05:16.089Z,3.24
2022-12-23T09:08:30.596Z,3.15
2022-12-23T09:11:33.530Z,3.24
2022-12-23T09:14:51.587Z,3.14
2022-12-23T09:18:06.582Z,3.27
2022-12-23T09:21:12.995Z,3.43
2022-12-23T09:24:27.562Z,3.40
2022-12-23T09:27:36.290Z,3.41
2022-12-23T09:30:52.596Z,3.42
2022-12-23T09:33:54.812Z,3.21
2022-12-23T09:37:10.559Z,3.31
2022-12-23T09:40:28.558Z,3.41
2022-12-23T09:44:10.010Z,3.39
2022-12-23T09:47:27.558Z,3.44
2022-12-23T09:50:34.689Z,3.44
2022-12-23T09:53:55.573Z,3.53
2022-12-23T09:57:26.572Z,3.53
2022-12-23T10:00:45.715Z,3.52
2022-12-23T10:04:14.629Z,3.58
2022-12-23T10:07:33.077Z,3.54
2022-12-23T10:10:57.567Z,3.44
2022-12-23T10:14:28.563Z,3.43
2022-12-23T10:17:42.003Z,3.46
2022-12-23T10:21:24.561Z,3.45
2022-12-23T10:24:52.582Z,3.49
2022-12-23T10:28:01.256Z,3.54
2022-12-23T10:34:53.105Z,3.65
2022-12-23T10:38:14.560Z,3.58
2022-12-23T10:41:17.958Z,3.60
2022-12-23T10:44:47.579Z,3.60
2022-12-23T10:48:20.604Z,3.59
2022-12-23T10:51:38.278Z,3.60
2022-12-23T10:54:55.539Z,3.72
2022-12-23T10:58:16.271Z,3.73
2022-12-23T11:01:32.720Z,3.82
2022-12-23T11:04:42.562Z,3.76
2022-12-23T11:07:58.547Z,3.73
2022-12-23T11:11:15.595Z,3.83
2022-12-23T11:14:50.900Z,3.96
2022-12-23T11:18:11.569Z,3.92
2022-12-23T11:21:27.541Z,3.92
2022-12-23T11:24:30.828Z,4.00
2022-12-23T11:27:53.289Z,4.06
2022-12-23T11:31:04.615Z,4.08
2022-12-23T11:34:25.686Z,4.10
2022-12-23T11:37:43.563Z,4.14
2022-12-23T11:40:59.545Z,4.11
2022-12-23T11:44:13.549Z,4.13
2022-12-23T11:47:28.540Z,4.09
2022-12-23T11:50:46.563Z,4.13
2022-12-23T11:53:48.706Z,4.17
2022-12-23T11:57:08.161Z,4.17
2022-12-23T12:00:49.384Z,4.14
2022-12-23T12:04:13.539Z,4.19
2022-12-23T12:07:28.538Z,4.12
2022-12-23T12:10:40.168Z,4.18
2022-12-23T12:13:52.559Z,4.22
2022-12-23T12:17:39.866Z,4.20
2022-12-23T12:21:00.563Z,4.20
2022-12-23T12:24:35.554Z,4.22
2022-12-23T12:27:52.324Z,4.28
2022-12-23T12:31:27.613Z,4.29
2022-12-23T12:35:17.733Z,4.31
2022-12-23T12:38:38.565Z,4.36
2022-12-23T12:41:58.547Z,4.29
2022-12-23T12:45:28.564Z,4.38
2022-12-23T12:49:12.587Z,4.43
2022-12-23T12:52:26.558Z,4.48
2022-12-23T12:55:47.540Z,4.47
2022-12-23T12:58:56.717Z,4.53
2022-12-23T13:02:37.564Z,4.48
2022-12-23T13:05:53.396Z,4.57
2022-12-23T13:09:20.537Z,4.56
2022-12-23T13:12:41.358Z,4.58
2022-12-23T13:16:13.521Z,4.63
2022-12-23T13:19:48.573Z,4.64
2022-12-23T13:23:42.909Z,4.61
2022-12-23T13:26:48.899Z,4.60
2022-12-23T13:30:24.536Z,4.66
2022-12-23T13:34:02.587Z,4.69
2022-12-23T13:37:41.750Z,4.68
2022-12-23T13:41:21.551Z,4.70
2022-12-23T13:44:24.596Z,4.71
2022-12-23T13:47:53.538Z,4.71
2022-12-23T13:51:35.367Z,4.71
2022-12-23T13:54:43.570Z,4.73
2022-12-23T13:58:13.590Z,4.75
2022-12-23T14:01:33.698Z,4.76
2022-12-23T14:04:43.539Z,4.75
2022-12-23T14:07:58.541Z,4.76
2022-12-23T14:11:20.913Z,4.75
2022-12-23T14:14:41.584Z,4.76
2022-12-23T14:18:35.561Z,4.81
2022-12-23T14:21:56.333Z,4.79
2022-12-23T14:25:47.602Z,4.80
2022-12-23T14:29:21.546Z,4.82
2022-12-23T14:32:42.457Z,4.81
2022-12-23T14:35:50.520Z,4.81
2022-12-23T14:39:11.335Z,4.79
2022-12-23T14:42:21.544Z,4.77
2022-12-23T14:45:42.733Z,4.75
2022-12-23T14:49:04.464Z,4.77
2022-12-23T14:52:39.297Z,4.79
2022-12-23T14:56:19.564Z,4.80
2022-12-23T14:59:44.995Z,4.75
2022-12-23T15:03:03.706Z,4.83
2022-12-23T15:06:23.551Z,4.84
2022-12-23T15:09:44.537Z,4.83
2022-12-23T15:13:04.533Z,4.83
2022-12-23T15:16:13.544Z,4.81
2022-12-23T15:19:25.714Z,4.82
2022-12-23T15:22:41.535Z,4.83
2022-12-23T15:25:48.987Z,4.85
2022-12-23T15:29:05.531Z,4.87
2022-12-23T15:32:11.151Z,4.85
2022-12-23T15:35:36.533Z,4.88
2022-12-23T15:38:51.573Z,4.86
2022-12-23T15:42:01.291Z,4.89
2022-12-23T15:45:45.515Z,4.89
2022-12-23T15:49:07.567Z,4.90
2022-12-23T15:52:20.322Z,4.82
2022-12-23T15:55:40.563Z,4.90
2022-12-23T15:58:56.536Z,4.89
2022-12-23T16:01:59.217Z,4.90
2022-12-23T16:05:15.556Z,4.91
2022-12-23T16:08:33.532Z,4.89
2022-12-23T16:12:24.348Z,4.84
2022-12-23T16:15:40.547Z,4.86
2022-12-23T16:18:50.512Z,4.87
2022-12-23T16:21:59.557Z,4.83
2022-12-23T16:25:12.602Z,4.87
2022-12-23T16:28:26.576Z,4.87
2022-12-23T16:31:48.241Z,4.85
2022-12-23T16:35:10.362Z,4.85
2022-12-23T16:38:25.532Z,4.85
2022-12-23T16:41:41.540Z,4.86
2022-12-23T16:44:50.529Z,4.78
2022-12-23T16:48:25.533Z,4.85
2022-12-23T16:51:41.557Z,4.83
2022-12-23T16:54:43.781Z,4.82
2022-12-23T16:57:58.526Z,4.83
2022-12-23T17:01:01.103Z,4.82
2022-12-23T17:04:15.538Z,4.82
2022-12-23T17:07:17.604Z,4.82
2022-12-23T17:10:35.553Z,4.80
2022-12-23T17:13:45.261Z,4.81
2022-12-23T17:17:00.516Z,4.73
2022-12-23T17:20:09.868Z,4.82
2022-12-23T17:23:38.526Z,4.83
2022-12-23T17:26:53.524Z,4.82
2022-12-23T17:30:02.530Z,4.81
2022-12-23T17:33:18.336Z,4.84
2022-12-23T17:36:33.557Z,4.84
2022-12-23T17:39:49.523Z,4.84
2022-12-23T17:43:04.516Z,4.79
2022-12-23T17:46:21.599Z,4.80
2022-12-23T17:49:43.529Z,4.81
2022-12-23T17:52:58.526Z,4.77
2022-12-23T17:56:15.515Z,4.78
2022-12-23T17:59:24.548Z,4.80
2022-12-23T18:02:33.422Z,4.82
2022-12-23T18:06:01.258Z,4.80
2022-12-23T18:09:10.511Z,4.82
2022-12-23T18:12:27.319Z,4.82
2022-12-23T18:15:44.583Z,4.82
2022-12-23T18:18:47.310Z,4.81
2022-12-23T18:22:03.532Z,4.77
2022-12-23T18:25:12.530Z,4.71
2022-12-23T18:28:21.720Z,4.75
2022-12-23T18:31:36.518Z,4.74
2022-12-23T18:34:44.541Z,4.69
2022-12-23T18:38:00.494Z,4.63
2022-12-23T18:41:19.511Z,4.64
2022-12-23T18:44:28.325Z,4.64
2022-12-23T18:47:36.532Z,4.67
2022-12-23T18:50:52.764Z,4.68
2022-12-23T18:54:01.528Z,4.69
2022-12-23T18:57:10.685Z,4.68
2022-12-23T19:00:25.554Z,4.69
2022-12-23T19:03:34.189Z,4.62
2022-12-23T19:06:42.522Z,4.64
2022-12-23T19:09:57.508Z,4.62
2022-12-23T19:13:00.399Z,4.60
2022-12-23T19:16:20.605Z,4.62
2022-12-23T19:19:29.522Z,4.64
2022-12-23T19:22:45.525Z,4.63
2022-12-23T19:26:00.737Z,4.65
2022-12-23T19:29:09.495Z,4.56
2022-12-23T19:32:18.166Z,4.55
2022-12-23T19:35:26.510Z,4.57
2022-12-23T19:38:35.341Z,4.53
2022-12-23T19:41:43.497Z,4.58
2022-12-23T19:44:58.532Z,4.56
2022-12-23T19:48:07.511Z,4.52
2022-12-23T19:51:29.780Z,4.54
2022-12-23T19:54:38.584Z,4.54
2022-12-23T19:57:54.606Z,4.54
2022-12-23T20:01:16.562Z,4.56
2022-12-23T20:04:31.506Z,4.53
2022-12-23T20:07:46.578Z,4.53
2022-12-23T20:10:55.514Z,4.53
2022-12-23T20:14:12.492Z,4.53
2022-12-23T20:17:14.804Z,4.52
2022-12-23T20:20:29.497Z,4.55
2022-12-23T20:23:45.631Z,4.56
2022-12-23T20:27:01.502Z,4.53
2022-12-23T20:30:10.525Z,4.54
2022-12-23T20:33:25.508Z,4.52
2022-12-23T20:36:30.516Z,4.46
2022-12-23T20:39:45.808Z,4.48
2022-12-23T20:43:00.682Z,4.50
2022-12-23T20:46:11.544Z,4.50
2022-12-23T20:49:26.816Z,4.52
2022-12-23T20:52:41.729Z,4.52
2022-12-23T20:55:50.181Z,4.53
2022-12-23T20:58:58.538Z,4.53
2022-12-23T21:02:15.702Z,4.49
2022-12-23T21:05:17.779Z,4.55
2022-12-23T21:08:33.406Z,4.54
2022-12-23T21:11:44.800Z,4.54
2022-12-23T21:15:00.563Z,4.54
2022-12-23T21:18:02.576Z,4.55
2022-12-23T21:21:19.504Z,4.57
2022-12-23T21:24:28.503Z,4.57
2022-12-23T21:27:43.513Z,4.57
2022-12-23T21:30:55.537Z,4.55
2022-12-23T21:34:10.494Z,4.57
2022-12-23T21:37:12.454Z,4.56
2022-12-23T21:40:27.519Z,4.55
2022-12-23T21:43:43.484Z,4.51
2022-12-23T21:46:52.347Z,4.49
2022-12-23T21:50:07.503Z,4.48
2022-12-23T21:53:22.498Z,4.48
2022-12-23T21:56:28.741Z,4.48
2022-12-23T21:59:43.484Z,4.45
2022-12-23T22:02:45.505Z,4.46
2022-12-23T22:06:01.782Z,4.45
2022-12-23T22:09:07.396Z,4.46
2022-12-23T22:12:22.493Z,4.41
2022-12-23T22:15:24.545Z,4.42
2022-12-23T22:18:39.493Z,4.41
2022-12-23T22:21:54.495Z,4.35
2022-12-23T22:25:03.266Z,4.38
2022-12-23T22:28:11.503Z,4.37
2022-12-23T22:31:32.085Z,4.36
2022-12-23T22:34:40.499Z,4.38
2022-12-23T22:37:49.222Z,4.37
2022-12-23T22:40:59.496Z,4.40
2022-12-23T22:44:16.489Z,4.44
2022-12-23T22:47:31.508Z,4.47
2022-12-23T22:50:48.783Z,4.48
2022-12-23T22:53:57.494Z,4.47
2022-12-23T22:57:12.476Z,4.48
2022-12-23T23:00:30.494Z,4.49
2022-12-23T23:03:45.502Z,4.50
2022-12-23T23:06:47.513Z,4.53
2022-12-23T23:10:02.473Z,4.55
2022-12-23T23:13:04.525Z,4.53
2022-12-23T23:16:19.619Z,4.60
2022-12-23T23:19:21.697Z,4.59
2022-12-23T23:22:37.481Z,4.56
2022-12-23T23:25:53.528Z,4.57
2022-12-23T23:29:02.197Z,4.53
2022-12-23T23:32:18.512Z,4.63
2022-12-23T23:35:20.557Z,4.65
2022-12-23T23:38:36.500Z,4.66
2022-12-23T23:41:45.478Z,4.70
2022-12-23T23:45:00.528Z,4.69
2022-12-23T23:48:02.489Z,4.66
2022-12-23T23:51:24.499Z,4.71
2022-12-23T23:54:33.113Z,4.65
2022-12-23T23:57:47.503Z,4.69
